createdAt,value
2023-03-28T00:00:59.001Z,1011.01
2023-03-28T00:01:59.014Z,1010.99
2023-03-28T00:02:59.049Z,1011.04
2023-03-28T00:03:58.989Z,1010.92
2023-03-28T00:04:58.968Z,1010.91
2023-03-28T00:05:59.192Z,1010.95
2023-03-28T00:06:58.950Z,1010.96
2023-03-28T00:07:58.947Z,1010.99
2023-03-28T00:08:58.940Z,1011.00
2023-03-28T00:09:58.911Z,1010.97
2023-03-28T00:10:58.904Z,1010.97
2023-03-28T00:11:58.889Z,1011.00
2023-03-28T00:12:58.871Z,1011.01
2023-03-28T00:13:58.866Z,1010.94
2023-03-28T00:14:58.869Z,1010.92
2023-03-28T00:15:59.056Z,1010.91
2023-03-28T00:16:58.866Z,1010.92
2023-03-28T00:18:06.474Z,1010.96
2023-03-28T00:18:58.804Z,1010.89
2023-03-28T00:19:58.808Z,1010.91
2023-03-28T00:20:58.805Z,1010.90
2023-03-28T00:21:58.778Z,1010.94
2023-03-28T00:22:58.782Z,1010.93
2023-03-28T00:23:58.813Z,1010.93
2023-03-28T00:24:58.787Z,1010.96
2023-03-28T00:25:59.636Z,1010.93
2023-03-28T00:26:58.723Z,1010.97
2023-03-28T00:27:58.707Z,1010.92
2023-03-28T00:28:58.700Z,1010.98
2023-03-28T00:29:58.694Z,1011.02
2023-03-28T00:30:58.736Z,1011.04
2023-03-28T00:31:58.670Z,1011.17
2023-03-28T00:32:58.717Z,1011.16
2023-03-28T00:33:58.655Z,1011.20
2023-03-28T00:34:58.637Z,1011.19
2023-03-28T00:35:59.168Z,1011.26
2023-03-28T00:36:58.616Z,1011.26
2023-03-28T00:37:58.625Z,1011.25
2023-03-28T00:38:58.602Z,1011.25
2023-03-28T00:39:58.596Z,1011.29
2023-03-28T00:40:58.592Z,1011.26
2023-03-28T00:41:58.553Z,1011.33
2023-03-28T00:42:58.754Z,1011.29
2023-03-28T00:43:58.560Z,1011.31
2023-03-28T00:44:58.573Z,1011.37
2023-03-28T00:46:08.723Z,1011.39
2023-03-28T00:47:00.589Z,1011.40
2023-03-28T00:47:58.551Z,1011.39
2023-03-28T00:48:58.490Z,1011.35
2023-03-28T00:49:58.497Z,1011.39
2023-03-28T00:50:58.455Z,1011.37
2023-03-28T00:51:58.641Z,1011.38
2023-03-28T00:52:58.440Z,1011.42
2023-03-28T00:53:58.440Z,1011.43
2023-03-28T00:54:58.412Z,1011.41
2023-03-28T00:55:58.588Z,1011.42
2023-03-28T00:56:58.457Z,1011.40
2023-03-28T00:57:58.383Z,1011.49
2023-03-28T00:58:58.397Z,1011.40
2023-03-28T00:59:58.367Z,1011.48
2023-03-28T01:00:58.357Z,1011.44
2023-03-28T01:01:59.012Z,1011.46
2023-03-28T01:02:58.502Z,1011.50
2023-03-28T01:03:58.448Z,1011.48
2023-03-28T01:04:58.327Z,1011.51
2023-03-28T01:05:58.656Z,1011.50
2023-03-28T01:06:58.279Z,1011.55
2023-03-28T01:07:58.269Z,1011.56
2023-03-28T01:08:58.251Z,1011.50
2023-03-28T01:09:58.266Z,1011.56
2023-03-28T01:10:58.278Z,1011.62
2023-03-28T01:11:58.247Z,1011.54
2023-03-28T01:12:58.217Z,1011.62
2023-03-28T01:13:58.286Z,1011.60
2023-03-28T01:14:58.228Z,1011.60
2023-03-28T01:15:58.615Z,1011.66
2023-03-28T01:16:58.198Z,1011.62
2023-03-28T01:17:58.222Z,1011.63
2023-03-28T01:18:58.254Z,1011.75
2023-03-28T01:19:58.132Z,1011.72
2023-03-28T01:20:58.253Z,1011.77
2023-03-28T01:21:58.119Z,1011.75
2023-03-28T01:22:58.371Z,1011.78
2023-03-28T01:24:11.646Z,1011.75
2023-03-28T01:24:59.210Z,1011.77
2023-03-28T01:25:58.317Z,1011.73
2023-03-28T01:26:58.083Z,1011.74
2023-03-28T01:27:58.055Z,1011.81
2023-03-28T01:28:58.090Z,1011.86
2023-03-28T01:29:58.020Z,1011.87
2023-03-28T01:30:58.012Z,1011.86
2023-03-28T01:31:58.074Z,1011.88
2023-03-28T01:32:58.012Z,1011.87
2023-03-28T01:33:58.006Z,1011.88
2023-03-28T01:34:57.986Z,1011.92
2023-03-28T01:36:57.943Z,1011.94
2023-03-28T01:37:57.935Z,1011.90
2023-03-28T01:38:57.924Z,1011.92
2023-03-28T01:39:58.002Z,1011.93
2023-03-28T01:40:57.904Z,1011.94
2023-03-28T01:41:57.942Z,1012.00
2023-03-28T01:42:57.876Z,1012.04
2023-03-28T01:43:57.883Z,1012.05
2023-03-28T01:44:57.870Z,1012.07
2023-03-28T01:45:58.289Z,1012.08
2023-03-28T01:46:57.830Z,1012.12
2023-03-28T01:47:57.858Z,1012.11
2023-03-28T01:48:57.821Z,1012.07
2023-03-28T01:49:57.815Z,1012.14
2023-03-28T01:50:57.835Z,1012.11
2023-03-28T01:51:57.793Z,1012.13
2023-03-28T01:52:57.764Z,1012.18
2023-03-28T01:53:57.756Z,1012.11
2023-03-28T01:54:57.774Z,1012.20
2023-03-28T01:55:58.019Z,1012.14
2023-03-28T01:56:57.751Z,1012.15
2023-03-28T01:57:57.733Z,1012.15
2023-03-28T01:58:57.752Z,1012.17
2023-03-28T01:59:57.707Z,1012.17
2023-03-28T02:00:58.503Z,1012.19
2023-03-28T02:01:57.696Z,1012.27
2023-03-28T02:02:57.749Z,1012.23
2023-03-28T02:03:57.673Z,1012.36
2023-03-28T02:04:57.664Z,1012.35
2023-03-28T02:05:57.911Z,1012.38
2023-03-28T02:06:57.635Z,1012.42
2023-03-28T02:07:57.636Z,1012.38
2023-03-28T02:08:57.592Z,1012.38
2023-03-28T02:09:57.615Z,1012.40
2023-03-28T02:10:57.754Z,1012.38
2023-03-28T02:11:57.586Z,1012.37
2023-03-28T02:12:57.554Z,1012.35
2023-03-28T02:13:57.547Z,1012.39
2023-03-28T02:14:57.525Z,1012.41
2023-03-28T02:15:57.855Z,1012.39
2023-03-28T02:16:57.585Z,1012.43
2023-03-28T02:17:57.542Z,1012.38
2023-03-28T02:18:57.493Z,1012.41
2023-03-28T02:19:57.482Z,1012.43
2023-03-28T02:20:57.509Z,1012.42
2023-03-28T02:21:57.472Z,1012.47
2023-03-28T02:22:57.494Z,1012.51
2023-03-28T02:23:57.456Z,1012.46
2023-03-28T02:24:57.456Z,1012.47
2023-03-28T02:25:57.555Z,1012.45
2023-03-28T02:26:57.402Z,1012.47
2023-03-28T02:27:57.428Z,1012.43
2023-03-28T02:28:57.390Z,1012.47
2023-03-28T02:29:57.379Z,1012.43
2023-03-28T02:30:57.362Z,1012.45
2023-03-28T02:31:57.557Z,1012.45
2023-03-28T02:32:57.352Z,1012.51
2023-03-28T02:33:57.330Z,1012.55
2023-03-28T02:34:57.364Z,1012.48
2023-03-28T02:35:57.428Z,1012.55
2023-03-28T02:36:57.476Z,1012.53
2023-03-28T02:37:57.285Z,1012.51
2023-03-28T02:38:57.304Z,1012.59
2023-03-28T02:39:57.267Z,1012.51
2023-03-28T02:40:57.286Z,1012.54
2023-03-28T02:41:57.319Z,1012.50
2023-03-28T02:42:57.228Z,1012.52
2023-03-28T02:43:57.221Z,1012.57
2023-03-28T02:44:57.261Z,1012.52
2023-03-28T02:45:57.372Z,1012.50
2023-03-28T02:46:57.899Z,1012.53
2023-03-28T02:47:57.230Z,1012.53
2023-03-28T02:48:57.179Z,1012.58
2023-03-28T02:49:57.159Z,1012.57
2023-03-28T02:50:57.188Z,1012.62
2023-03-28T02:51:57.141Z,1012.59
2023-03-28T02:52:57.122Z,1012.65
2023-03-28T02:53:57.115Z,1012.63
2023-03-28T02:54:57.120Z,1012.63
2023-03-28T02:55:57.148Z,1012.65
2023-03-28T02:56:57.124Z,1012.66
2023-03-28T02:57:57.074Z,1012.68
2023-03-28T02:58:57.073Z,1012.67
2023-03-28T02:59:57.070Z,1012.70
2023-03-28T03:00:57.057Z,1012.73
2023-03-28T03:01:57.096Z,1012.82
2023-03-28T03:02:57.082Z,1012.74
2023-03-28T03:03:58.131Z,1012.74
2023-03-28T03:04:57.995Z,1012.72
2023-03-28T03:05:57.145Z,1012.76
2023-03-28T03:06:57.002Z,1012.75
2023-03-28T03:07:56.963Z,1012.78
2023-03-28T03:08:56.969Z,1012.83
2023-03-28T03:09:56.951Z,1012.88
2023-03-28T03:10:56.965Z,1012.89
2023-03-28T03:11:56.916Z,1012.90
2023-03-28T03:12:56.910Z,1012.94
2023-03-28T03:13:56.890Z,1012.96
2023-03-28T03:14:56.895Z,1012.98
2023-03-28T03:15:56.994Z,1012.95
2023-03-28T03:16:56.884Z,1012.98
2023-03-28T03:17:56.887Z,1013.03
2023-03-28T03:18:56.976Z,1013.00
2023-03-28T03:19:56.840Z,1013.00
2023-03-28T03:20:56.833Z,1013.03
2023-03-28T03:21:56.840Z,1013.05
2023-03-28T03:22:56.854Z,1013.03
2023-03-28T03:23:56.792Z,1013.06
2023-03-28T03:24:56.787Z,1013.06
2023-03-28T03:25:56.785Z,1013.14
2023-03-28T03:26:56.769Z,1013.12
2023-03-28T03:27:56.764Z,1013.12
2023-03-28T03:28:56.735Z,1013.09
2023-03-28T03:29:56.722Z,1013.10
2023-03-28T03:30:56.721Z,1013.07
2023-03-28T03:31:56.700Z,1013.14
2023-03-28T03:32:56.733Z,1013.10
2023-03-28T03:33:56.678Z,1013.13
2023-03-28T03:34:56.677Z,1013.14
2023-03-28T03:35:56.716Z,1013.19
2023-03-28T03:36:56.643Z,1013.20
2023-03-28T03:37:56.647Z,1013.21
2023-03-28T03:38:56.623Z,1013.21
2023-03-28T03:39:56.616Z,1013.23
2023-03-28T03:40:56.610Z,1013.28
2023-03-28T03:41:56.603Z,1013.29
2023-03-28T03:42:56.891Z,1013.40
2023-03-28T03:43:56.566Z,1013.37
2023-03-28T03:44:56.554Z,1013.40
2023-03-28T03:45:56.657Z,1013.38
2023-03-28T03:46:56.556Z,1013.38
2023-03-28T03:47:56.601Z,1013.40
2023-03-28T03:48:56.513Z,1013.43
2023-03-28T03:49:56.500Z,1013.48
2023-03-28T03:50:56.489Z,1013.52
2023-03-28T03:51:56.472Z,1013.54
2023-03-28T03:52:56.498Z,1013.49
2023-03-28T03:53:56.452Z,1013.52
2023-03-28T03:54:56.465Z,1013.55
2023-03-28T03:55:56.441Z,1013.53
2023-03-28T03:56:56.483Z,1013.56
2023-03-28T03:57:57.018Z,1013.55
2023-03-28T03:58:56.439Z,1013.56
2023-03-28T03:59:56.387Z,1013.59
2023-03-28T04:00:56.375Z,1013.60
2023-03-28T04:01:56.435Z,1013.60
2023-03-28T04:02:56.531Z,1013.59
2023-03-28T04:03:56.355Z,1013.65
2023-03-28T04:04:56.329Z,1013.64
2023-03-28T04:05:56.318Z,1013.66
2023-03-28T04:06:56.480Z,1013.59
2023-03-28T04:07:56.310Z,1013.56
2023-03-28T04:08:56.291Z,1013.55
2023-03-28T04:09:56.274Z,1013.63
2023-03-28T04:10:56.264Z,1013.67
2023-03-28T04:11:56.272Z,1013.72
2023-03-28T04:12:56.292Z,1013.76
2023-03-28T04:13:56.231Z,1013.74
2023-03-28T04:14:56.338Z,1013.84
2023-03-28T04:15:56.274Z,1013.78
2023-03-28T04:16:56.218Z,1013.83
2023-03-28T04:17:56.399Z,1013.78
2023-03-28T04:18:56.191Z,1013.86
2023-03-28T04:19:56.167Z,1013.85
2023-03-28T04:20:56.179Z,1013.87
2023-03-28T04:21:56.143Z,1013.88
2023-03-28T04:22:56.136Z,1013.96
2023-03-28T04:23:56.217Z,1013.94
2023-03-28T04:24:56.121Z,1013.93
2023-03-28T04:25:56.173Z,1013.97
2023-03-28T04:26:56.212Z,1014.04
2023-03-28T04:27:56.102Z,1013.99
2023-03-28T04:28:56.066Z,1014.02
2023-03-28T04:29:56.070Z,1014.04
2023-03-28T04:30:56.070Z,1014.03
2023-03-28T04:31:56.146Z,1014.03
2023-03-28T04:32:56.098Z,1014.06
2023-03-28T04:33:56.030Z,1014.07
2023-03-28T04:34:56.001Z,1014.10
2023-03-28T04:35:56.023Z,1014.14
2023-03-28T04:36:55.983Z,1014.14
2023-03-28T04:37:56.004Z,1014.18
2023-03-28T04:38:55.971Z,1014.20
2023-03-28T04:39:55.953Z,1014.24
2023-03-28T04:40:55.938Z,1014.28
2023-03-28T04:41:56.015Z,1014.31
2023-03-28T04:42:55.932Z,1014.31
2023-03-28T04:43:55.918Z,1014.34
2023-03-28T04:44:56.012Z,1014.40
2023-03-28T04:45:55.928Z,1014.39
2023-03-28T04:46:55.887Z,1014.42
2023-03-28T04:47:55.911Z,1014.43
2023-03-28T04:48:56.749Z,1014.47
2023-03-28T04:49:55.836Z,1014.53
2023-03-28T04:50:55.827Z,1014.52
2023-03-28T04:51:55.820Z,1014.48
2023-03-28T04:52:55.805Z,1014.55
2023-03-28T04:53:55.807Z,1014.54
2023-03-28T04:54:55.791Z,1014.61
2023-03-28T04:55:55.779Z,1014.56
2023-03-28T04:56:56.584Z,1014.62
2023-03-28T04:57:55.754Z,1014.62
2023-03-28T04:58:55.774Z,1014.64
2023-03-28T04:59:55.726Z,1014.63
2023-03-28T05:00:55.749Z,1014.64
2023-03-28T05:01:55.725Z,1014.62
2023-03-28T05:02:55.856Z,1014.68
2023-03-28T05:03:55.710Z,1014.66
2023-03-28T05:04:55.700Z,1014.68
2023-03-28T05:05:55.659Z,1014.66
2023-03-28T05:06:55.647Z,1014.70
2023-03-28T05:07:55.633Z,1014.69
2023-03-28T05:08:55.625Z,1014.70
2023-03-28T05:09:55.612Z,1014.72
2023-03-28T05:10:55.613Z,1014.69
2023-03-28T05:11:55.590Z,1014.82
2023-03-28T05:12:55.597Z,1014.74
2023-03-28T05:13:55.579Z,1014.81
2023-03-28T05:14:55.559Z,1014.83
2023-03-28T05:15:55.560Z,1014.89
2023-03-28T05:16:55.536Z,1014.85
2023-03-28T05:17:55.614Z,1014.90
2023-03-28T05:18:55.554Z,1014.91
2023-03-28T05:19:55.499Z,1014.88
2023-03-28T05:20:56.002Z,1014.94
2023-03-28T05:21:55.520Z,1014.92
2023-03-28T05:22:55.466Z,1014.88
2023-03-28T05:23:55.460Z,1014.95
2023-03-28T05:24:55.469Z,1014.92
2023-03-28T05:25:55.431Z,1014.92
2023-03-28T05:26:55.433Z,1014.98
2023-03-28T05:27:55.409Z,1015.00
2023-03-28T05:28:55.407Z,1015.00
2023-03-28T05:29:55.401Z,1014.95
2023-03-28T05:30:55.375Z,1015.00
2023-03-28T05:31:55.381Z,1015.05
2023-03-28T05:32:55.507Z,1015.07
2023-03-28T05:33:55.369Z,1015.04
2023-03-28T05:34:55.364Z,1015.07
2023-03-28T05:35:55.415Z,1015.11
2023-03-28T05:36:55.309Z,1015.13
2023-03-28T05:37:55.300Z,1015.11
2023-03-28T05:38:55.317Z,1015.16
2023-03-28T05:39:55.280Z,1015.15
2023-03-28T05:40:55.283Z,1015.17
2023-03-28T05:41:55.266Z,1015.18
2023-03-28T05:42:55.248Z,1015.21
2023-03-28T05:43:55.262Z,1015.24
2023-03-28T05:44:55.263Z,1015.24
2023-03-28T05:45:55.239Z,1015.29
2023-03-28T05:46:55.219Z,1015.25
2023-03-28T05:47:55.233Z,1015.26
2023-03-28T05:48:55.184Z,1015.30
2023-03-28T05:49:55.293Z,1015.31
2023-03-28T05:50:55.181Z,1015.37
2023-03-28T05:51:55.161Z,1015.39
2023-03-28T05:52:55.141Z,1015.43
2023-03-28T05:53:55.148Z,1015.43
2023-03-28T05:54:55.129Z,1015.45
2023-03-28T05:55:55.154Z,1015.49
2023-03-28T05:56:55.154Z,1015.52
2023-03-28T05:57:55.109Z,1015.55
2023-03-28T05:58:55.104Z,1015.54
2023-03-28T05:59:55.064Z,1015.50
2023-03-28T06:00:55.052Z,1015.50
2023-03-28T06:01:55.039Z,1015.60
2023-03-28T06:02:55.139Z,1015.55
2023-03-28T06:03:55.128Z,1015.57
2023-03-28T06:04:55.098Z,1015.53
2023-03-28T06:05:54.993Z,1015.58
2023-03-28T06:06:55.007Z,1015.53
2023-03-28T06:07:54.986Z,1015.52
2023-03-28T06:08:54.984Z,1015.66
2023-03-28T06:09:54.957Z,1015.66
2023-03-28T06:10:54.953Z,1015.50
2023-03-28T06:11:54.927Z,1015.59
2023-03-28T06:12:54.929Z,1015.60
2023-03-28T06:13:54.942Z,1015.62
2023-03-28T06:14:54.895Z,1015.70
2023-03-28T06:15:54.881Z,1015.57
2023-03-28T06:16:54.917Z,1015.73
2023-03-28T06:17:54.921Z,1015.63
2023-03-28T06:19:06.916Z,1015.68
2023-03-28T06:19:55.859Z,1015.71
2023-03-28T06:20:54.833Z,1015.66
2023-03-28T06:21:54.833Z,1015.69
2023-03-28T06:22:55.535Z,1015.73
2023-03-28T06:23:54.811Z,1015.67
2023-03-28T06:24:54.781Z,1015.70
2023-03-28T06:25:54.787Z,1015.70
2023-03-28T06:26:54.809Z,1015.70
2023-03-28T06:27:54.748Z,1015.63
2023-03-28T06:28:54.743Z,1015.73
2023-03-28T06:29:54.725Z,1015.71
2023-03-28T06:30:54.809Z,1015.68
2023-03-28T06:31:54.771Z,1015.74
2023-03-28T06:32:54.736Z,1015.70
2023-03-28T06:33:54.688Z,1015.77
2023-03-28T06:34:54.678Z,1015.74
2023-03-28T06:35:54.715Z,1015.74
2023-03-28T06:36:54.772Z,1015.86
2023-03-28T06:37:54.641Z,1015.85
2023-03-28T06:38:54.659Z,1015.82
2023-03-28T06:39:58.043Z,1015.79
2023-03-28T06:40:54.683Z,1015.75
2023-03-28T06:41:54.613Z,1015.80
2023-03-28T06:42:54.584Z,1015.84
2023-03-28T06:43:54.745Z,1015.87
2023-03-28T06:44:54.566Z,1015.83
2023-03-28T06:45:54.607Z,1015.86
2023-03-28T06:46:54.543Z,1015.83
2023-03-28T06:47:54.647Z,1015.86
2023-03-28T06:48:54.524Z,1015.84
2023-03-28T06:49:54.504Z,1015.93
2023-03-28T06:50:54.508Z,1015.89
2023-03-28T06:51:54.504Z,1015.86
2023-03-28T06:52:54.477Z,1015.94
2023-03-28T06:53:54.552Z,1016.00
2023-03-28T06:54:54.476Z,1015.96
2023-03-28T06:55:54.456Z,1016.00
2023-03-28T06:56:54.531Z,1015.96
2023-03-28T06:57:54.418Z,1015.94
2023-03-28T06:58:54.413Z,1015.96
2023-03-28T06:59:54.392Z,1016.02
2023-03-28T07:00:54.407Z,1015.98
2023-03-28T07:01:54.457Z,1015.95
2023-03-28T07:02:54.464Z,1016.01
2023-03-28T07:03:54.421Z,1016.05
2023-03-28T07:04:54.359Z,1015.95
2023-03-28T07:05:54.332Z,1015.98
2023-03-28T07:06:54.341Z,1016.02
2023-03-28T07:07:54.305Z,1016.09
2023-03-28T07:08:54.293Z,1016.12
2023-03-28T07:09:54.303Z,1016.07
2023-03-28T07:10:54.294Z,1016.10
2023-03-28T07:11:54.264Z,1016.09
2023-03-28T07:12:54.253Z,1016.07
2023-03-28T07:14:00.702Z,1016.08
2023-03-28T07:15:19.607Z,1016.15
2023-03-28T07:15:55.085Z,1016.08
2023-03-28T07:16:54.346Z,1016.14
2023-03-28T07:17:56.031Z,1016.12
2023-03-28T07:18:54.204Z,1016.12
2023-03-28T07:19:54.205Z,1016.15
2023-03-28T07:21:03.219Z,1016.22
2023-03-28T07:21:55.168Z,1016.23
2023-03-28T07:22:54.140Z,1016.21
2023-03-28T07:23:54.140Z,1016.18
2023-03-28T07:24:54.118Z,1016.23
2023-03-28T07:25:54.104Z,1016.26
2023-03-28T07:26:58.779Z,1016.29
2023-03-28T07:27:55.084Z,1016.35
2023-03-28T07:28:54.149Z,1016.24
2023-03-28T07:29:54.079Z,1016.29
2023-03-28T07:30:54.054Z,1016.34
2023-03-28T07:31:54.118Z,1016.38
2023-03-28T07:33:01.094Z,1016.38
2023-03-28T07:33:55.047Z,1016.42
2023-03-28T07:34:54.024Z,1016.40
2023-03-28T07:35:54.036Z,1016.38
2023-03-28T07:36:53.997Z,1016.39
2023-03-28T07:37:53.994Z,1016.31
2023-03-28T07:38:53.963Z,1016.36
2023-03-28T07:39:53.989Z,1016.44
2023-03-28T07:40:53.942Z,1016.47
2023-03-28T07:41:53.927Z,1016.48
2023-03-28T07:42:53.983Z,1016.47
2023-03-28T07:43:53.902Z,1016.54
2023-03-28T07:44:53.916Z,1016.49
2023-03-28T07:45:53.920Z,1016.45
2023-03-28T07:46:53.895Z,1016.47
2023-03-28T07:47:53.904Z,1016.52
2023-03-28T07:48:53.849Z,1016.49
2023-03-28T07:49:53.835Z,1016.58
2023-03-28T07:50:53.830Z,1016.62
2023-03-28T07:51:53.830Z,1016.61
2023-03-28T07:52:53.859Z,1016.58
2023-03-28T07:53:53.789Z,1016.62
2023-03-28T07:54:53.784Z,1016.69
2023-03-28T07:55:55.562Z,1016.69
2023-03-28T07:56:53.816Z,1016.46
2023-03-28T07:57:53.744Z,1016.69
2023-03-28T07:58:53.756Z,1016.65
2023-03-28T07:59:53.729Z,1016.67
2023-03-28T08:00:53.712Z,1016.67
2023-03-28T08:01:53.718Z,1016.68
2023-03-28T08:02:53.751Z,1016.66
2023-03-28T08:03:53.772Z,1016.68
2023-03-28T08:04:53.670Z,1016.75
2023-03-28T08:05:53.685Z,1016.69
2023-03-28T08:06:53.650Z,1016.77
2023-03-28T08:07:53.647Z,1016.75
2023-03-28T08:08:53.644Z,1016.70
2023-03-28T08:09:54.067Z,1016.76
2023-03-28T08:10:53.606Z,1016.78
2023-03-28T08:11:53.806Z,1016.75
2023-03-28T08:12:53.594Z,1016.82
2023-03-28T08:13:53.574Z,1016.79
2023-03-28T08:14:53.572Z,1016.79
2023-03-28T08:15:55.109Z,1016.80
2023-03-28T08:16:53.564Z,1016.86
2023-03-28T08:17:53.664Z,1016.86
2023-03-28T08:19:03.898Z,1016.93
2023-03-28T08:19:54.498Z,1016.92
2023-03-28T08:20:53.492Z,1016.85
2023-03-28T08:21:53.661Z,1016.86
2023-03-28T08:22:53.486Z,1016.89
2023-03-28T08:23:53.468Z,1016.89
2023-03-28T08:24:53.447Z,1016.92
2023-03-28T08:25:53.432Z,1016.96
2023-03-28T08:26:53.501Z,1016.95
2023-03-28T08:27:53.429Z,1016.93
2023-03-28T08:28:53.530Z,1016.95
2023-03-28T08:29:53.389Z,1017.00
2023-03-28T08:30:53.522Z,1016.97
2023-03-28T08:31:53.424Z,1016.96
2023-03-28T08:32:53.432Z,1016.73
2023-03-28T08:33:53.346Z,1016.94
2023-03-28T08:34:53.340Z,1016.99
2023-03-28T08:35:53.364Z,1016.99
2023-03-28T08:36:53.346Z,1017.06
2023-03-28T08:37:53.301Z,1017.03
2023-03-28T08:38:53.292Z,1017.09
2023-03-28T08:39:54.063Z,1016.99
2023-03-28T08:40:53.270Z,1017.03
2023-03-28T08:41:53.281Z,1017.07
2023-03-28T08:42:53.317Z,1017.07
2023-03-28T08:43:53.232Z,1017.11
2023-03-28T08:44:53.232Z,1017.07
2023-03-28T08:45:53.225Z,1016.98
2023-03-28T08:46:53.235Z,1016.90
2023-03-28T08:47:53.216Z,1017.16
2023-03-28T08:48:53.196Z,1017.08
2023-03-28T08:49:53.193Z,1017.14
2023-03-28T08:50:53.212Z,1017.13
2023-03-28T08:51:53.160Z,1016.80
2023-03-28T08:52:53.146Z,1016.88
2023-03-28T08:53:53.132Z,1017.12
2023-03-28T08:54:53.124Z,1017.19
2023-03-28T08:55:53.798Z,1017.02
2023-03-28T08:56:53.150Z,1017.26
2023-03-28T08:57:53.097Z,1017.41
2023-03-28T08:58:53.080Z,1016.95
2023-03-28T08:59:53.155Z,1016.85
2023-03-28T09:00:53.136Z,1016.92
2023-03-28T09:01:53.592Z,1017.42
2023-03-28T09:02:53.111Z,1017.33
2023-03-28T09:03:53.212Z,1017.33
2023-03-28T09:04:53.016Z,1017.49
2023-03-28T09:05:52.995Z,1017.40
2023-03-28T09:06:53.014Z,1017.46
2023-03-28T09:07:52.967Z,1017.40
2023-03-28T09:08:53.014Z,1017.48
2023-03-28T09:09:52.964Z,1017.44
2023-03-28T09:10:52.938Z,1016.99
2023-03-28T09:11:52.929Z,1017.20
2023-03-28T09:12:52.932Z,1017.07
2023-03-28T09:13:52.913Z,1017.55
2023-03-28T09:14:52.895Z,1017.63
2023-03-28T09:15:52.897Z,1017.09
2023-03-28T09:16:53.133Z,1017.07
2023-03-28T09:17:52.915Z,1017.26
2023-03-28T09:18:52.871Z,1017.12
2023-03-28T09:19:52.843Z,1017.19
2023-03-28T09:20:52.942Z,1017.29
2023-03-28T09:21:57.578Z,1017.23
2023-03-28T09:22:53.808Z,1017.26
2023-03-28T09:23:52.796Z,1017.26
2023-03-28T09:24:52.792Z,1017.30
2023-03-28T09:25:52.770Z,1017.27
2023-03-28T09:26:52.768Z,1017.25
2023-03-28T09:27:52.784Z,1017.32
2023-03-28T09:28:52.742Z,1017.63
2023-03-28T09:29:52.725Z,1017.36
2023-03-28T09:30:52.716Z,1017.39
2023-03-28T09:31:52.772Z,1017.39
2023-03-28T09:32:52.752Z,1017.37
2023-03-28T09:33:52.688Z,1017.31
2023-03-28T09:34:52.695Z,1017.48
2023-03-28T09:35:52.726Z,1017.51
2023-03-28T09:36:54.104Z,1017.46
2023-03-28T09:37:52.651Z,1017.36
2023-03-28T09:38:52.628Z,1017.37
2023-03-28T09:39:52.676Z,1017.45
2023-03-28T09:40:52.646Z,1017.51
2023-03-28T09:41:52.605Z,1017.61
2023-03-28T09:42:52.585Z,1017.62
2023-03-28T09:43:52.579Z,1017.53
2023-03-28T09:44:54.567Z,1017.56
2023-03-28T09:45:52.629Z,1017.62
2023-03-28T09:46:53.117Z,1017.67
2023-03-28T09:47:52.639Z,1018.06
2023-03-28T09:48:52.674Z,1017.61
2023-03-28T09:50:02.254Z,1017.65
2023-03-28T09:50:53.525Z,1017.63
2023-03-28T09:51:52.478Z,1017.62
2023-03-28T09:52:52.468Z,1017.73
2023-03-28T09:53:52.476Z,1017.60
2023-03-28T09:54:52.487Z,1017.61
2023-03-28T09:56:03.548Z,1017.68
2023-03-28T09:56:53.439Z,1017.78
2023-03-28T09:57:52.408Z,1017.74
2023-03-28T09:58:52.531Z,1017.77
2023-03-28T09:59:52.402Z,1017.89
2023-03-28T10:00:52.480Z,1017.68
2023-03-28T10:01:52.416Z,1017.62
2023-03-28T10:02:52.481Z,1017.79
2023-03-28T10:03:52.350Z,1017.75
2023-03-28T10:04:52.431Z,1017.70
2023-03-28T10:05:52.487Z,1017.67
2023-03-28T10:06:52.328Z,1017.79
2023-03-28T10:07:52.298Z,1017.84
2023-03-28T10:08:52.294Z,1017.78
2023-03-28T10:09:52.298Z,1018.09
2023-03-28T10:10:54.849Z,1018.23
2023-03-28T10:11:52.283Z,1017.90
2023-03-28T10:12:52.246Z,1017.63
2023-03-28T10:13:52.268Z,1017.61
2023-03-28T10:14:52.227Z,1017.69
2023-03-28T10:15:52.264Z,1018.06
2023-03-28T10:16:52.197Z,1017.63
2023-03-28T10:17:52.217Z,1017.60
2023-03-28T10:18:52.205Z,1017.63
2023-03-28T10:19:52.624Z,1017.65
2023-03-28T10:20:52.159Z,1017.65
2023-03-28T10:21:52.144Z,1017.69
2023-03-28T10:22:52.178Z,1017.68
2023-03-28T10:23:52.120Z,1017.71
2023-03-28T10:24:52.146Z,1017.76
2023-03-28T10:25:52.109Z,1017.81
2023-03-28T10:26:52.206Z,1017.82
2023-03-28T10:27:52.089Z,1017.78
2023-03-28T10:28:52.067Z,1017.82
2023-03-28T10:29:52.074Z,1017.88
2023-03-28T10:30:52.090Z,1018.04
2023-03-28T10:31:52.033Z,1018.16
2023-03-28T10:32:52.042Z,1018.29
2023-03-28T10:33:52.009Z,1018.23
2023-03-28T10:34:52.015Z,1018.24
2023-03-28T10:35:52.054Z,1018.20
2023-03-28T10:36:51.998Z,1017.78
2023-03-28T10:37:51.968Z,1017.78
2023-03-28T10:38:51.977Z,1017.72
2023-03-28T10:39:52.138Z,1018.18
2023-03-28T10:40:52.030Z,1018.20
2023-03-28T10:41:52.065Z,1017.67
2023-03-28T10:42:51.931Z,1018.15
2023-03-28T10:43:51.896Z,1018.15
2023-03-28T10:44:51.885Z,1018.12
2023-03-28T10:45:51.892Z,1018.17
2023-03-28T10:46:51.883Z,1018.17
2023-03-28T10:47:51.895Z,1017.64
2023-03-28T10:48:51.861Z,1017.65
2023-03-28T10:49:51.858Z,1018.13
2023-03-28T10:50:51.825Z,1017.82
2023-03-28T10:51:51.861Z,1017.88
2023-03-28T10:52:51.804Z,1018.09
2023-03-28T10:53:52.614Z,1018.11
2023-03-28T10:54:51.818Z,1018.18
2023-03-28T10:55:51.762Z,1018.30
2023-03-28T10:56:51.784Z,1018.30
2023-03-28T10:57:51.770Z,1018.17
2023-03-28T10:58:51.751Z,1017.73
2023-03-28T10:59:51.723Z,1017.77
2023-03-28T11:00:51.724Z,1017.72
2023-03-28T11:01:51.797Z,1017.75
2023-03-28T11:02:51.835Z,1017.72
2023-03-28T11:03:51.782Z,1017.79
2023-03-28T11:04:51.667Z,1017.80
2023-03-28T11:06:05.610Z,1017.89
2023-03-28T11:06:52.646Z,1018.20
2023-03-28T11:07:51.646Z,1017.81
2023-03-28T11:09:01.638Z,1017.83
2023-03-28T11:09:51.605Z,1018.37
2023-03-28T11:10:52.148Z,1017.90
2023-03-28T11:11:51.633Z,1018.36
2023-03-28T11:12:55.634Z,1018.18
2023-03-28T11:13:51.564Z,1018.40
2023-03-28T11:14:51.573Z,1018.34
2023-03-28T11:15:51.809Z,1018.36
2023-03-28T11:16:51.537Z,1018.26
2023-03-28T11:17:51.579Z,1017.84
2023-03-28T11:18:51.521Z,1017.80
2023-03-28T11:19:51.493Z,1017.79
2023-03-28T11:20:51.483Z,1017.78
2023-03-28T11:21:51.483Z,1018.42
2023-03-28T11:23:04.712Z,1018.40
2023-03-28T11:23:52.470Z,1018.28
2023-03-28T11:24:51.441Z,1017.75
2023-03-28T11:25:51.428Z,1018.36
2023-03-28T11:26:51.494Z,1018.35
2023-03-28T11:27:51.427Z,1018.32
2023-03-28T11:28:51.398Z,1018.26
2023-03-28T11:29:51.408Z,1018.32
2023-03-28T11:30:51.377Z,1018.26
2023-03-28T11:31:51.438Z,1018.26
2023-03-28T11:32:51.444Z,1018.19
2023-03-28T11:33:51.492Z,1018.31
2023-03-28T11:34:51.425Z,1018.34
2023-03-28T11:35:51.337Z,1018.44
2023-03-28T11:36:51.736Z,1017.75
2023-03-28T11:37:51.294Z,1017.92
2023-03-28T11:38:51.289Z,1018.41
2023-03-28T11:39:51.289Z,1018.41
2023-03-28T11:40:51.273Z,1017.85
2023-03-28T11:41:51.252Z,1017.85
2023-03-28T11:42:51.259Z,1017.84
2023-03-28T11:43:51.229Z,1018.39
2023-03-28T11:44:51.216Z,1018.16
2023-03-28T11:45:52.988Z,1018.33
2023-03-28T11:46:51.249Z,1018.39
2023-03-28T11:47:51.217Z,1018.40
2023-03-28T11:48:51.182Z,1018.38
2023-03-28T11:49:51.162Z,1017.87
2023-03-28T11:50:51.180Z,1017.69
2023-03-28T11:51:51.139Z,1017.70
2023-03-28T11:52:51.127Z,1017.82
2023-03-28T11:53:51.650Z,1017.72
2023-03-28T11:54:51.119Z,1017.86
2023-03-28T11:55:51.132Z,1017.86
2023-03-28T11:56:51.184Z,1017.91
2023-03-28T11:57:51.077Z,1017.90
2023-03-28T11:58:51.669Z,1018.35
2023-03-28T11:59:51.052Z,1018.25
2023-03-28T12:00:51.133Z,1018.33
2023-03-28T12:01:51.074Z,1018.37
2023-03-28T12:02:51.098Z,1017.71
2023-03-28T12:03:51.123Z,1017.76
2023-03-28T12:04:50.993Z,1017.75
2023-03-28T12:05:51.420Z,1017.74
2023-03-28T12:07:01.884Z,1018.00